Time;durP1;ratioP1;P1;durP2;ratioP2;P2;SDS_P1;SDS_P2;PMS_P1;PMS_P2;Temp;Humidity;BMP_temperature;BMP_pressure;BME280_temperature;BME280_humidity;BME280_pressure;Samples;Min_cycle;Max_cycle;Signal;HPM_P1;HPM_P2
2022/06/06 00:03:30;;;;;;;7.33;6.58;;;;;;;13.43;62.79;100837.38;3636417;77;20971;-83
2022/06/06 00:08:21;;;;;;;8.03;7.25;;;;;;;13.36;62.83;100828.66;3588910;76;20978;-83
2022/06/06 00:13:15;;;;;;;7.33;6.35;;;;;;;13.29;62.88;100830.75;3601376;75;20909;-83
2022/06/06 00:18:06;;;;;;;6.92;6.35;;;;;;;13.21;63.20;100828.05;3617703;76;20915;-83
2022/06/06 00:23:01;;;;;;;7.17;6.47;;;;;;;13.19;63.41;100831.09;3556408;75;21000;-83
2022/06/06 00:27:52;;;;;;;8.55;7.35;;;;;;;13.19;63.46;100832.39;3589338;77;20987;-83
2022/06/06 00:37:47;;;;;;;7.87;6.87;;;;;;;13.06;63.68;100814.89;3479634;80;22169;-83
2022/06/06 00:42:41;;;;;;;10.78;6.65;;;;;;;13.03;63.77;100805.28;3441188;80;21087;-83
2022/06/06 00:47:32;;;;;;;13.78;7.92;;;;;;;12.96;63.91;100796.95;3445425;79;22532;-83
2022/06/06 00:52:29;;;;;;;8.65;7.53;;;;;;;12.93;64.01;100792.61;3493008;80;20939;-83
2022/06/06 00:57:25;;;;;;;7.72;6.95;;;;;;;12.86;64.11;100787.30;3418837;81;21028;-83
2022/06/06 01:02:17;;;;;;;7.73;6.97;;;;;;;12.78;64.29;100795.06;3429627;80;20984;-83
2022/06/06 01:07:11;;;;;;;7.30;6.60;;;;;;;12.71;64.32;100791.95;3338406;80;21685;-83
2022/06/06 01:12:11;;;;;;;8.00;7.20;;;;;;;12.71;64.69;100791.52;3429689;77;21528;-83
2022/06/06 01:17:07;;;;;;;8.35;7.65;;;;;;;12.68;64.52;100789.30;3607306;77;22133;-83
2022/06/06 01:22:25;;;;;;;7.28;6.47;;;;;;;12.53;64.44;100777.87;3682561;75;20979;-83
2022/06/06 01:27:29;;;;;;;;;;;;;;;12.46;64.79;100779.10;3671932;75;21033;-83
2022/06/06 01:32:23;;;;;;;7.53;6.83;;;;;;;12.37;64.98;100772.05;3635955;75;20255;-83
2022/06/06 01:37:35;;;;;;;7.90;7.20;;;;;;;12.29;65.34;100773.73;3656622;75;21040;-84
2022/06/06 01:42:48;;;;;;;8.90;8.00;;;;;;;12.17;65.39;100777.92;3668899;76;20978;-83
2022/06/06 01:47:44;;;;;;;7.58;6.90;;;;;;;12.06;65.41;100774.33;3645605;75;21440;-83
2022/06/06 01:52:57;;;;;;;7.90;7.20;;;;;;;11.94;65.76;100771.57;3683918;75;21544;-83
2022/06/06 01:57:51;;;;;;;8.90;8.05;;;;;;;11.92;66.25;100773.29;3643657;75;20940;-83
2022/06/06 02:02:43;;;;;;;10.95;8.08;;;;;;;11.90;66.26;100772.37;3620260;75;21965;-83
2022/06/06 02:07:34;;;;;;;8.18;7.37;;;;;;;11.88;66.45;100764.97;3628821;76;21489;-83
2022/06/06 02:12:25;;;;;;;8.33;7.47;;;;;;;11.88;66.70;100762.36;3614494;75;21042;-83
2022/06/06 02:17:16;;;;;;;7.83;6.92;;;;;;;11.85;66.70;100753.20;3665189;75;21714;-83
2022/06/06 02:22:07;;;;;;;7.95;7.25;;;;;;;11.79;66.79;100757.47;3626973;75;20995;-83
2022/06/06 02:26:59;;;;;;;8.25;7.45;;;;;;;11.78;66.89;100749.19;3597098;75;21732;-82
2022/06/06 02:31:50;;;;;;;9.05;8.25;;;;;;;11.73;67.06;100737.88;3650663;75;20984;-83
2022/06/06 02:36:41;;;;;;;9.13;7.10;;;;;;;11.70;67.27;100736.95;3647503;75;20990;-83
2022/06/06 02:41:33;;;;;;;8.53;7.72;;;;;;;11.72;67.28;100737.41;3608847;76;21479;-83
2022/06/06 02:46:25;;;;;;;8.98;8.00;;;;;;;11.74;67.33;100726.58;3661045;75;20982;-83
2022/06/06 02:51:16;;;;;;;9.13;8.15;;;;;;;11.73;67.50;100717.03;3634582;75;20958;-83
2022/06/06 02:56:08;;;;;;;8.40;7.60;;;;;;;11.78;67.78;100721.84;3648457;76;20901;-83
2022/06/06 03:01:12;;;;;;;10.48;9.38;;;;;;;11.88;68.08;100735.00;3632349;76;21225;-83
2022/06/06 03:06:08;;;;;;;7.97;7.17;;;;;;;11.96;67.93;100724.26;3583680;76;20947;-83
2022/06/06 03:11:20;;;;;;;8.80;8.00;;;;;;;12.04;68.05;100734.35;3662183;75;20943;-83
2022/06/06 03:22:15;;;;;;;8.35;7.65;;;;;;;13.30;67.21;100739.78;3672899;75;21612;-83
2022/06/06 03:27:44;;;;;;;10.45;7.83;;;;;;;14.50;66.53;100750.71;3642772;75;20909;-84
2022/06/06 03:33:00;;;;;;;7.10;6.45;;;;;;;16.17;64.46;100750.02;3627320;75;20963;-84
2022/06/06 03:38:05;;;;;;;7.90;7.22;;;;;;;16.86;62.23;100755.25;3628723;76;20949;-84
2022/06/06 03:43:34;;;;;;;8.58;7.78;;;;;;;16.06;61.96;100755.73;3670689;75;21178;-84
2022/06/06 03:48:58;;;;;;;9.03;7.70;;;;;;;15.68;62.33;100769.85;3666559;75;20915;-83
2022/06/06 03:54:08;;;;;;;9.43;7.08;;;;;;;15.41;62.84;100779.52;3672901;75;21479;-84
2022/06/06 03:58:59;;;;;;;7.90;7.20;;;;;;;14.87;63.41;100784.36;3629909;77;20967;-84
2022/06/06 04:03:52;;;;;;;7.87;7.22;;;;;;;14.61;64.15;100790.00;3575437;77;22073;-83
2022/06/06 04:08:43;;;;;;;9.40;8.50;;;;;;;14.38;64.75;100790.81;3607540;76;22016;-83
2022/06/06 04:13:49;;;;;;;8.15;7.45;;;;;;;14.25;65.39;100789.02;3612268;77;21560;-83
2022/06/06 04:19:23;;;;;;;8.05;7.25;;;;;;;14.18;65.83;100796.41;3629567;76;20849;-83
2022/06/06 04:24:20;;;;;;;8.43;7.62;;;;;;;14.13;66.22;100788.98;3408253;81;21529;-82
2022/06/06 04:29:38;;;;;;;15.95;8.25;;;;;;;14.14;66.79;100795.97;3440464;80;20987;-82
2022/06/06 04:34:41;;;;;;;;;;;;;;;14.22;67.12;100795.57;3416773;80;21611;-83
2022/06/06 04:40:02;;;;;;;7.67;6.97;;;;;;;14.33;67.72;100816.08;3449398;80;20174;-83
2022/06/06 04:45:14;;;;;;;32.08;13.05;;;;;;;14.44;67.60;100818.28;3458629;80;21067;-83
2022/06/06 04:50:16;;;;;;;9.13;7.67;;;;;;;14.63;68.15;100813.12;3433408;80;20956;-83
2022/06/06 04:55:09;;;;;;;8.98;7.50;;;;;;;14.80;68.17;100804.86;3443144;78;21026;-83
2022/06/06 05:00:03;;;;;;;9.95;7.40;;;;;;;14.99;68.22;100804.45;3609559;76;21831;-83
2022/06/06 05:04:54;;;;;;;7.17;6.58;;;;;;;15.19;68.00;100794.41;3609608;75;20951;-82
2022/06/06 05:10:17;;;;;;;9.38;6.67;;;;;;;15.43;67.91;100798.73;3639289;75;21484;-82
2022/06/06 05:15:38;;;;;;;9.00;6.80;;;;;;;15.68;67.22;100798.68;3618624;76;21037;-82
2022/06/06 05:20:58;;;;;;;6.92;6.33;;;;;;;15.97;67.06;100795.98;3584436;77;21076;-82
2022/06/06 05:26:15;;;;;;;6.03;5.42;;;;;;;16.31;66.84;100792.78;3605321;77;20970;-82
2022/06/06 05:31:33;;;;;;;6.22;5.72;;;;;;;16.60;66.04;100793.05;3624303;76;20997;-82
2022/06/06 05:36:45;;;;;;;5.53;5.08;;;;;;;16.99;65.16;100805.49;3611534;77;20966;-83
2022/06/06 05:42:18;;;;;;;6.03;5.42;;;;;;;17.36;64.09;100801.20;3616143;77;22160;-83
2022/06/06 05:47:34;;;;;;;5.62;4.78;;;;;;;17.88;62.86;100800.70;3631965;77;20927;-83
2022/06/06 05:52:31;;;;;;;4.70;4.30;;;;;;;18.47;62.31;100801.23;3654302;75;21193;-83
2022/06/06 05:57:31;;;;;;;4.37;3.60;;;;;;;18.72;61.62;100804.83;3676290;75;21558;-83
2022/06/06 06:02:46;;;;;;;5.28;4.58;;;;;;;18.82;60.71;100806.46;3622188;77;20992;-83
2022/06/06 06:08:03;;;;;;;6.47;5.85;;;;;;;18.99;60.23;100803.12;3655939;75;21065;-83
2022/06/06 06:13:03;;;;;;;6.12;5.72;;;;;;;19.19;59.15;100800.56;3617116;76;20947;-83
2022/06/06 06:17:56;;;;;;;6.35;5.85;;;;;;;19.38;58.14;100791.44;3609799;76;22796;-83
2022/06/06 06:22:59;;;;;;;5.70;5.25;;;;;;;19.61;57.24;100782.23;3601034;75;20951;-83
2022/06/06 06:27:53;;;;;;;5.25;4.85;;;;;;;20.00;56.60;100781.05;3653462;76;20987;-83
2022/06/06 06:33:05;;;;;;;5.00;4.60;;;;;;;20.35;55.72;100766.20;3585505;75;21013;-83
2022/06/06 06:38:23;;;;;;;5.22;4.78;;;;;;;20.80;55.24;100767.81;3672787;75;20968;-83
2022/06/06 06:43:55;;;;;;;4.50;4.08;;;;;;;21.21;54.55;100754.00;3668903;76;21222;-83
2022/06/06 06:48:51;;;;;;;4.00;3.80;;;;;;;21.83;52.84;100753.20;3669331;75;21571;-83
2022/06/06 06:54:06;;;;;;;4.53;3.60;;;;;;;22.17;52.18;100741.60;3614483;75;20928;-84
2022/06/06 06:59:06;;;;;;;4.53;4.15;;;;;;;22.73;50.17;100736.31;3634479;76;21516;-83
2022/06/06 07:10:03;;;;;;;3.50;3.30;;;;;;;23.07;49.86;100739.14;3649277;76;21890;-83
2022/06/06 07:15:27;;;;;;;2.90;2.70;;;;;;;23.38;48.88;100751.35;3681611;75;21481;-83
2022/06/06 07:20:20;;;;;;;4.42;3.02;;;;;;;23.72;48.08;100754.11;3627649;75;20978;-84
2022/06/06 07:25:12;;;;;;;3.95;2.85;;;;;;;24.62;47.12;100763.04;3626509;76;21568;-84
2022/06/06 07:30:03;;;;;;;2.10;1.92;;;;;;;26.95;43.54;100756.06;3624087;76;21023;-88
2022/06/06 07:35:27;;;;;;;3.15;2.10;;;;;;;28.31;41.03;100751.51;3654463;75;20953;-85
2022/06/06 07:40:42;;;;;;;3.52;2.47;;;;;;;28.33;40.62;100757.62;3671255;76;20963;-86
2022/06/06 07:45:51;;;;;;;2.42;2.30;;;;;;;30.08;37.74;100748.08;3663052;75;21001;-86
2022/06/06 07:51:00;;;;;;;2.17;2.08;;;;;;;31.72;36.27;100740.17;3640662;75;20935;-85
2022/06/06 07:56:14;;;;;;;2.80;2.12;;;;;;;32.03;35.05;100725.84;3639611;75;22201;-86
2022/06/06 08:01:20;;;;;;;2.50;2.40;;;;;;;32.58;33.88;100728.48;3672449;75;21903;-81
2022/06/06 08:06:25;;;;;;;2.45;2.17;;;;;;;31.76;33.90;100726.03;3659895;75;20911;-81
2022/06/06 08:11:43;;;;;;;2.62;2.42;;;;;;;30.96;34.27;100722.59;3609243;77;21563;-85
2022/06/06 08:16:48;;;;;;;3.05;2.45;;;;;;;31.01;33.90;100723.60;3655618;75;21026;-82
2022/06/06 08:21:43;;;;;;;;;;;;;;;32.13;31.79;100718.86;3652911;76;20977;-86
2022/06/06 08:26:44;;;;;;;2.63;2.37;;;;;;;35.16;29.41;100714.04;3608052;77;21283;-88
2022/06/06 08:31:34;;;;;;;3.40;2.22;;;;;;;37.18;27.09;100703.39;3626034;75;20989;-85
2022/06/06 08:36:45;;;;;;;2.30;2.00;;;;;;;38.86;26.00;100705.77;3573755;75;20951;-89
2022/06/06 08:42:28;;;;;;;2.22;2.12;;;;;;;40.14;24.08;100701.84;3624711;75;21001;-90
2022/06/06 08:48:02;;;;;;;1.92;1.82;;;;;;;41.05;22.97;100711.39;3634568;75;22087;-87
2022/06/06 08:53:28;;;;;;;2.30;2.17;;;;;;;41.59;21.37;100704.77;3607181;76;21251;-85
2022/06/06 08:58:27;;;;;;;5.50;2.27;;;;;;;41.41;21.40;100687.78;3635605;76;20911;-85
2022/06/06 09:04:00;;;;;;;2.00;1.90;;;;;;;39.31;22.12;100692.98;3653899;76;21022;-87
2022/06/06 09:09:23;;;;;;;4.55;1.90;;;;;;;38.87;21.97;100692.55;3628600;75;21058;-86
2022/06/06 09:14:54;;;;;;;3.15;1.82;;;;;;;36.16;23.96;100694.87;3632312;76;20954;-85
2022/06/06 09:20:18;;;;;;;2.37;1.80;;;;;;;33.67;25.29;100685.53;3690925;75;21092;-85
2022/06/06 09:25:55;;;;;;;3.22;2.40;;;;;;;32.94;26.66;100676.86;3675310;75;21052;-88
2022/06/06 09:31:17;;;;;;;5.75;2.42;;;;;;;32.56;25.75;100682.00;3643964;75;21048;-83
2022/06/06 09:36:25;;;;;;;2.90;2.00;;;;;;;33.19;25.76;100674.48;3689600;75;21017;-81
2022/06/06 09:41:40;;;;;;;2.20;2.00;;;;;;;32.42;27.67;100667.40;3635594;76;40095;-82
2022/06/06 09:47:05;;;;;;;2.40;2.20;;;;;;;33.63;25.77;100671.41;3674179;76;21312;-80
2022/06/06 09:52:35;;;;;;;2.02;1.92;;;;;;;34.82;25.37;100669.70;3639518;75;21093;-80
2022/06/06 10:03:29;;;;;;;2.30;2.20;;;;;;;35.18;24.51;100658.02;3656825;75;20904;-80
2022/06/06 10:08:49;;;;;;;2.30;2.20;;;;;;;34.70;24.53;100666.70;3604985;75;21030;-81
2022/06/06 10:14:04;;;;;;;2.67;2.47;;;;;;;35.31;24.18;100665.45;3650143;75;21512;-79
2022/06/06 10:19:19;;;;;;;3.08;2.87;;;;;;;37.20;23.51;100662.59;3657914;76;20957;-81
2022/06/06 10:24:25;;;;;;;2.75;2.40;;;;;;;36.85;23.41;100663.27;3673578;75;21099;-79
2022/06/06 10:35:29;;;;;;;2.58;2.42;;;;;;;36.80;23.32;100646.93;3682240;75;21544;-79
2022/06/06 10:40:56;;;;;;;;;;;;;;;37.46;22.69;100627.52;3669855;75;21991;-83
2022/06/06 10:45:55;;;;;;;2.65;2.45;;;;;;;37.73;21.87;100635.31;3655566;75;20255;-82
2022/06/06 10:51:40;;;;;;;2.40;2.30;;;;;;;37.72;22.85;100627.69;3626758;75;20951;-80
2022/06/06 10:56:55;;;;;;;;;;;;;;;37.88;22.41;100618.86;3630777;77;20967;-79
2022/06/06 11:01:57;;;;;;;5.47;2.70;;;;;;;37.77;22.91;100620.42;3651954;75;20455;-79
2022/06/06 11:07:40;;;;;;;2.60;2.50;;;;;;;35.76;24.03;100609.27;3657513;76;21652;-82
2022/06/06 11:13:11;;;;;;;2.80;2.60;;;;;;;34.47;24.93;100594.44;3629007;75;21498;-81
2022/06/06 11:18:39;;;;;;;3.60;2.67;;;;;;;33.47;26.02;100595.48;3617337;76;21062;-81
2022/06/06 11:23:54;;;;;;;2.83;2.72;;;;;;;33.10;26.55;100586.80;3420585;82;21531;-78
2022/06/06 11:29:02;;;;;;;3.22;3.00;;;;;;;32.60;27.40;100579.89;3414929;81;21129;-87
2022/06/06 11:34:11;;;;;;;2.77;2.67;;;;;;;32.42;27.96;100579.96;3401948;82;21106;-78
2022/06/06 11:39:58;;;;;;;3.35;2.65;;;;;;;31.98;28.13;100567.57;3400575;82;21000;-86
2022/06/06 11:45:24;;;;;;;;;;;;;;;31.79;27.53;100561.37;3422822;82;21094;-84
2022/06/06 11:50:43;;;;;;;3.77;2.75;;;;;;;31.51;26.91;100562.06;3404985;81;20400;-81
2022/06/06 11:56:13;;;;;;;2.80;2.60;;;;;;;31.51;27.61;100551.31;3383053;81;21003;-82
2022/06/06 12:01:37;;;;;;;3.17;2.98;;;;;;;31.51;28.34;100539.22;3663274;75;21578;-80
2022/06/06 12:06:55;;;;;;;4.78;2.62;;;;;;;31.70;28.72;100545.94;3658261;75;20922;-78
2022/06/06 12:12:30;;;;;;;3.25;2.60;;;;;;;31.59;28.38;100545.89;3656903;75;20944;-79
2022/06/06 12:17:27;;;;;;;2.55;2.35;;;;;;;31.48;28.41;100543.50;3625270;75;20910;-82
2022/06/06 12:22:44;;;;;;;2.70;2.50;;;;;;;31.32;28.49;100531.65;3617566;77;20939;-77
2022/06/06 12:28:17;;;;;;;2.55;2.37;;;;;;;31.33;28.68;100540.55;3661764;76;21965;-79
2022/06/06 12:33:35;;;;;;;2.47;2.30;;;;;;;31.57;28.91;100535.71;3527585;79;21015;-80
2022/06/06 12:39:00;;;;;;;2.62;2.42;;;;;;;31.75;28.82;100534.36;3511067;79;20948;-81
2022/06/06 12:44:05;;;;;;;2.63;2.53;;;;;;;31.72;28.16;100537.27;3525751;79;20979;-80
2022/06/06 12:49:34;;;;;;;2.70;2.50;;;;;;;31.79;28.40;100521.55;3501479;78;20982;-81
2022/06/06 13:00:08;;;;;;;3.30;3.10;;;;;;;31.90;28.29;100520.23;3522187;78;20987;-81
2022/06/06 13:05:12;;;;;;;2.95;2.75;;;;;;;31.93;28.21;100524.05;3673076;75;21286;-80
2022/06/06 13:10:18;;;;;;;4.72;2.67;;;;;;;31.86;28.56;100520.11;3673143;75;20976;-81
2022/06/06 13:15:31;;;;;;;3.08;2.50;;;;;;;31.93;28.54;100510.60;3657120;75;21007;-79
2022/06/06 13:21:06;;;;;;;2.52;2.42;;;;;;;31.92;28.36;100503.00;3662023;75;21191;-81
2022/06/06 13:26:34;;;;;;;2.75;2.40;;;;;;;32.02;28.43;100500.98;3653599;77;21519;-80
2022/06/06 13:31:51;;;;;;;2.47;2.37;;;;;;;32.09;28.18;100506.29;3663975;75;20932;-79
2022/06/06 13:37:09;;;;;;;3.25;2.85;;;;;;;31.77;28.04;100493.44;3632961;76;20949;-82
2022/06/06 13:42:20;;;;;;;2.60;2.40;;;;;;;31.72;28.16;100500.98;3679781;76;20930;-82
2022/06/06 13:47:28;;;;;;;2.75;2.55;;;;;;;31.56;28.27;100502.63;3595248;78;21893;-80
2022/06/06 13:53:03;;;;;;;2.52;2.30;;;;;;;31.56;28.47;100495.06;3578584;78;21232;-81
2022/06/06 13:58:17;;;;;;;2.47;2.37;;;;;;;31.41;27.97;100489.83;3588660;78;21003;-81
2022/06/06 14:03:35;;;;;;;2.65;2.45;;;;;;;31.57;28.05;100488.69;3586136;78;21186;-85
2022/06/06 14:08:50;;;;;;;2.77;2.58;;;;;;;31.64;27.73;100477.86;3544035;78;20928;-84
2022/06/06 14:13:55;;;;;;;3.17;2.87;;;;;;;31.39;27.61;100483.72;3541946;77;22463;-85
2022/06/06 14:18:52;;;;;;;2.65;2.45;;;;;;;31.39;28.11;100476.12;3461792;81;21522;-80
2022/06/06 14:23:43;;;;;;;3.60;2.60;;;;;;;31.61;28.03;100470.05;3598308;77;20939;-81
2022/06/06 14:28:39;;;;;;;4.42;2.40;;;;;;;31.66;28.14;100467.87;3593287;78;20975;-81
2022/06/06 14:33:36;;;;;;;3.22;2.95;;;;;;;31.48;27.67;100462.91;3529428;78;20981;-83
2022/06/06 14:38:33;;;;;;;2.87;2.67;;;;;;;31.47;26.83;100450.89;3554397;77;21089;-88
2022/06/06 14:43:27;;;;;;;2.30;2.20;;;;;;;30.85;28.74;100460.74;3526076;77;21471;-82
2022/06/06 14:48:31;;;;;;;2.55;2.35;;;;;;;30.00;29.05;100454.60;3559619;77;21026;-86
2022/06/06 14:53:37;;;;;;;3.90;2.50;;;;;;;29.64;29.42;100456.60;3594755;77;20992;-84
2022/06/06 14:58:32;;;;;;;2.50;2.30;;;;;;;29.21;29.44;100462.12;3588622;77;20959;-83
2022/06/06 15:03:48;;;;;;;2.55;2.40;;;;;;;29.38;30.69;100459.66;3530746;77;22202;-85
2022/06/06 15:09:07;;;;;;;2.85;2.65;;;;;;;29.64;30.55;100437.84;3550943;77;20994;-84
2022/06/06 15:14:07;;;;;;;2.40;2.30;;;;;;;29.43;30.59;100432.11;3619668;77;20926;-85
2022/06/06 15:19:03;;;;;;;3.12;2.52;;;;;;;29.88;30.69;100429.98;3627896;77;20931;-85
2022/06/06 15:23:58;;;;;;;2.87;2.67;;;;;;;30.30;29.92;100423.95;3607544;77;26859;-85
2022/06/06 15:29:25;;;;;;;2.72;2.52;;;;;;;30.22;29.38;100420.94;3598977;78;21522;-84
2022/06/06 15:34:24;;;;;;;4.05;2.25;;;;;;;29.39;29.90;100415.88;3581699;77;21235;-85
2022/06/06 15:39:47;;;;;;;2.80;2.60;;;;;;;29.16;30.90;100426.77;3603342;77;21623;-85
2022/06/06 15:44:57;;;;;;;2.40;2.27;;;;;;;29.11;30.81;100414.97;3621030;77;21257;-85
2022/06/06 15:50:16;;;;;;;2.60;2.40;;;;;;;29.29;31.10;100402.22;3495977;80;21500;-85
2022/06/06 15:55:49;;;;;;;3.35;2.65;;;;;;;29.31;31.47;100408.82;3472073;80;20954;-86
2022/06/06 16:01:22;;;;;;;3.02;2.77;;;;;;;29.35;31.13;100408.53;3500682;79;20989;-85
2022/06/06 16:06:16;;;;;;;2.70;2.50;;;;;;;29.58;31.10;100393.59;3543374;78;20970;-84
2022/06/06 16:11:33;;;;;;;2.90;2.70;;;;;;;29.45;31.15;100399.38;3543908;79;20998;-85
2022/06/06 16:16:37;;;;;;;2.83;2.35;;;;;;;28.98;31.59;100398.02;3502829;80;20904;-85
2022/06/06 16:21:36;;;;;;;2.87;2.72;;;;;;;28.66;31.50;100396.45;3530937;79;21839;-84
2022/06/06 16:26:45;;;;;;;3.05;2.83;;;;;;;28.55;31.91;100394.09;3579935;77;20955;-84
2022/06/06 16:31:38;;;;;;;42.13;17.27;;;;;;;28.45;31.87;100386.59;3651251;75;21579;-83
2022/06/06 16:36:56;;;;;;;3.75;3.33;;;;;;;28.55;32.45;100386.07;3589225;76;21454;-83
2022/06/06 16:52:55;;;;;;;94.90;31.60;;;;;;;28.54;32.25;100389.69;3679472;75;20864;-83
2022/06/06 16:58:13;;;;;;;6.55;4.22;;;;;;;28.43;32.26;100383.65;3686287;75;20928;-84
2022/06/06 17:03:25;;;;;;;6.90;3.87;;;;;;;28.25;32.96;100374.97;3631369;75;20896;-83
2022/06/06 17:08:33;;;;;;;2.90;2.70;;;;;;;28.07;32.69;100375.16;3629583;76;20939;-83
2022/06/06 17:13:39;;;;;;;8.83;5.35;;;;;;;27.89;33.01;100378.93;3688577;75;21470;-83
2022/06/06 17:18:36;;;;;;;9.65;3.08;;;;;;;27.66;34.07;100378.50;3656011;75;20991;-83
2022/06/06 17:23:33;;;;;;;4.62;2.62;;;;;;;27.33;35.00;100375.55;3508695;80;20975;-83
2022/06/06 17:28:42;;;;;;;7.42;3.27;;;;;;;26.98;35.70;100376.21;3584691;77;21545;-83
2022/06/06 17:34:08;;;;;;;7.03;4.17;;;;;;;26.63;36.29;100382.59;3574069;77;21607;-83
2022/06/06 17:39:26;;;;;;;6.70;4.87;;;;;;;26.32;36.90;100377.18;3585969;77;21028;-82
2022/06/06 17:44:25;;;;;;;3.92;3.40;;;;;;;25.98;37.89;100370.51;3618006;77;20955;-83
2022/06/06 17:49:55;;;;;;;4.03;3.70;;;;;;;25.68;38.78;100376.92;3493920;78;21032;-83
2022/06/06 17:55:11;;;;;;;3.47;3.27;;;;;;;25.40;39.53;100370.36;3565201;77;20953;-82
2022/06/06 18:00:37;;;;;;;3.87;3.47;;;;;;;25.18;40.51;100376.31;3588954;77;20983;-82
2022/06/06 18:06:16;;;;;;;5.05;3.98;;;;;;;24.99;41.27;100374.56;3593986;77;21185;-84
2022/06/06 18:11:37;;;;;;;4.58;4.28;;;;;;;24.85;41.94;100381.02;3543579;77;21038;-83
2022/06/06 18:16:55;;;;;;;7.70;3.83;;;;;;;24.65;42.51;100387.28;3553226;77;20935;-83
2022/06/06 18:21:48;;;;;;;4.80;3.52;;;;;;;24.45;42.76;100385.49;3610544;77;20932;-83
2022/06/06 18:26:51;;;;;;;4.37;3.95;;;;;;;24.30;43.53;100387.92;3555457;78;21021;-85
2022/06/06 18:32:03;;;;;;;3.92;3.67;;;;;;;24.17;43.87;100392.08;3572317;77;21240;-83
2022/06/06 18:36:56;;;;;;;5.65;4.55;;;;;;;24.00;44.38;100387.50;3607543;77;20997;-84
2022/06/06 18:42:05;;;;;;;5.33;4.00;;;;;;;23.84;45.06;100387.34;3600445;77;20971;-84
2022/06/06 18:46:56;;;;;;;4.37;4.08;;;;;;;23.72;45.91;100390.48;3547854;77;20936;-83
2022/06/06 18:52:05;;;;;;;4.40;3.77;;;;;;;23.57;46.40;100394.19;3566926;77;20992;-84
2022/06/06 18:57:14;;;;;;;5.50;4.72;;;;;;;23.39;47.03;100398.91;3590329;77;22051;-83
2022/06/06 19:02:28;;;;;;;7.80;4.45;;;;;;;23.19;46.88;100401.06;3572287;77;21112;-83
2022/06/06 19:07:40;;;;;;;10.03;5.15;;;;;;;22.99;47.26;100400.51;3625473;77;21047;-83
2022/06/06 19:12:36;;;;;;;8.95;5.15;;;;;;;22.83;47.65;100405.08;3621801;77;21051;-83
2022/06/06 19:17:40;;;;;;;5.97;4.75;;;;;;;22.69;48.02;100402.09;3567599;77;20945;-84
2022/06/06 19:22:32;;;;;;;5.85;5.30;;;;;;;22.57;48.45;100398.58;3592875;77;22076;-83
2022/06/06 19:27:36;;;;;;;7.90;5.60;;;;;;;22.44;49.04;100404.34;3548333;77;20908;-85
2022/06/06 19:32:35;;;;;;;6.58;4.65;;;;;;;22.31;49.53;100407.05;3569292;78;20948;-85
2022/06/06 19:37:38;;;;;;;7.72;5.03;;;;;;;22.18;49.92;100407.08;3585006;77;21014;-84
2022/06/06 19:42:49;;;;;;;6.67;4.97;;;;;;;22.06;50.31;100403.93;3593680;77;21473;-86
2022/06/06 19:47:45;;;;;;;6.37;5.78;;;;;;;21.95;50.49;100406.10;3591311;77;21434;-85
2022/06/06 19:52:37;;;;;;;8.53;5.78;;;;;;;21.82;51.20;100396.84;3517476;78;21599;-84
2022/06/06 19:57:29;;;;;;;14.00;6.30;;;;;;;21.68;51.32;100399.98;3519419;77;20920;-85
2022/06/06 20:02:32;;;;;;;7.22;6.03;;;;;;;21.57;51.75;100408.29;3509657;77;21211;-85
2022/06/06 20:07:42;;;;;;;10.58;5.83;;;;;;;21.42;52.05;100402.14;3532731;77;21439;-84
2022/06/06 20:12:34;;;;;;;9.08;6.15;;;;;;;21.30;52.42;100408.25;3554751;77;21482;-84
2022/06/06 20:17:31;;;;;;;6.55;5.78;;;;;;;21.19;52.87;100407.70;3532778;77;21078;-85
2022/06/06 20:22:27;;;;;;;9.18;6.28;;;;;;;21.10;53.03;100408.00;3528001;77;20933;-85
2022/06/06 20:27:26;;;;;;;8.78;6.50;;;;;;;21.04;53.63;100408.21;3591638;77;21575;-84
2022/06/06 20:32:32;;;;;;;6.62;5.92;;;;;;;20.96;53.89;100400.50;3572866;77;21442;-83
2022/06/06 20:37:27;;;;;;;8.83;6.45;;;;;;;20.87;54.10;100406.08;3643624;75;21326;-84
2022/06/06 20:42:45;;;;;;;10.55;6.97;;;;;;;20.80;54.34;100413.34;3629600;75;21560;-84
2022/06/06 20:47:36;;;;;;;;;;;;;;;20.71;54.59;100409.63;3651970;75;21014;-86
2022/06/06 20:52:35;;;;;;;6.53;5.92;;;;;;;20.56;55.58;100407.81;3625082;75;20378;-85
2022/06/06 20:57:34;;;;;;;7.17;6.00;;;;;;;20.43;55.57;100399.86;3625434;75;20896;-85
2022/06/06 21:02:26;;;;;;;7.37;6.62;;;;;;;20.31;56.01;100399.74;3633168;76;22625;-86
2022/06/06 21:07:29;;;;;;;7.85;6.25;;;;;;;20.22;56.31;100403.97;3594384;75;20971;-85
2022/06/06 21:12:21;;;;;;;8.50;7.65;;;;;;;20.13;56.76;100405.55;3609598;76;20947;-86
2022/06/06 21:17:12;;;;;;;6.17;5.60;;;;;;;20.02;56.93;100418.17;3650761;77;20927;-85
2022/06/06 21:22:04;;;;;;;6.15;5.62;;;;;;;19.94;57.03;100428.91;3639243;75;20936;-85
2022/06/06 21:26:56;;;;;;;8.45;7.75;;;;;;;19.97;57.15;100415.65;3562052;75;20972;-85
2022/06/06 21:31:47;;;;;;;8.83;7.15;;;;;;;19.95;57.51;100429.34;3583052;76;21077;-85
2022/06/06 21:36:39;;;;;;;6.58;5.92;;;;;;;19.90;57.89;100429.91;3595323;76;21473;-86
2022/06/06 21:41:30;;;;;;;7.08;6.47;;;;;;;19.88;57.27;100419.39;3534019;75;20961;-85
2022/06/06 21:46:24;;;;;;;7.40;6.85;;;;;;;19.85;57.79;100423.88;3646906;75;20958;-84
2022/06/06 21:56:36;;;;;;;6.87;6.37;;;;;;;19.78;58.22;100426.70;3598578;75;21590;-86
2022/06/06 22:01:29;;;;;;;7.47;6.87;;;;;;;19.76;58.53;100423.23;3602668;75;20989;-85
2022/06/06 22:06:22;;;;;;;7.33;6.42;;;;;;;19.64;58.44;100420.88;3618734;75;21437;-85
2022/06/06 22:11:15;;;;;;;7.45;6.85;;;;;;;19.56;58.74;100417.55;3609044;75;21721;-85
2022/06/06 22:16:06;;;;;;;7.87;7.10;;;;;;;19.45;59.28;100414.32;3594791;76;21354;-85
2022/06/06 22:20:57;;;;;;;7.70;7.00;;;;;;;19.33;59.36;100416.33;3613214;75;20963;-85
2022/06/06 22:25:48;;;;;;;6.85;6.35;;;;;;;19.24;59.74;100411.28;3619467;75;21485;-86
2022/06/06 22:30:39;;;;;;;7.67;7.10;;;;;;;19.11;60.01;100402.80;3574686;75;20967;-85
2022/06/06 22:35:31;;;;;;;8.10;7.22;;;;;;;19.03;60.08;100393.77;3615690;75;21570;-86
2022/06/06 22:40:22;;;;;;;7.60;7.00;;;;;;;18.93;60.33;100401.45;3608239;77;21828;-85
2022/06/06 22:45:14;;;;;;;8.05;7.50;;;;;;;18.80;60.76;100399.98;3601258;76;20975;-85
2022/06/06 22:50:07;;;;;;;8.53;7.72;;;;;;;18.79;60.96;100395.59;3603250;76;20971;-86
2022/06/06 22:54:58;;;;;;;8.85;8.05;;;;;;;18.76;61.15;100403.56;3632720;75;21353;-85
2022/06/06 22:59:50;;;;;;;8.35;7.72;;;;;;;18.72;61.41;100403.22;3659919;75;20984;-85
2022/06/06 23:04:41;;;;;;;8.53;7.83;;;;;;;18.69;61.68;100397.58;3612286;75;21333;-85
2022/06/06 23:09:32;;;;;;;8.55;7.65;;;;;;;18.65;61.84;100395.47;3591554;75;20982;-85
2022/06/06 23:14:26;;;;;;;8.80;8.10;;;;;;;18.64;62.08;100393.72;3650681;76;20953;-85
2022/06/06 23:19:20;;;;;;;8.73;8.00;;;;;;;18.63;62.08;100393.75;3646849;76;21436;-85
2022/06/06 23:24:10;;;;;;;9.90;7.35;;;;;;;18.63;62.33;100393.28;3591942;77;20916;-85
2022/06/06 23:29:04;;;;;;;8.77;8.07;;;;;;;18.59;62.25;100392.95;3600435;75;20973;-85
2022/06/06 23:33:54;;;;;;;8.95;8.25;;;;;;;18.59;62.62;100381.56;3598230;75;21573;-85
2022/06/06 23:38:59;;;;;;;9.58;8.68;;;;;;;18.60;62.80;100388.53;3621835;76;20972;-85
2022/06/06 23:43:54;;;;;;;9.25;8.33;;;;;;;18.61;63.04;100385.87;3678505;75;20999;-85
2022/06/06 23:48:54;;;;;;;9.05;8.30;;;;;;;18.62;63.34;100380.19;3583465;77;20970;-85
2022/06/06 23:53:50;;;;;;;8.05;7.37;;;;;;;18.62;63.37;100369.19;3629740;76;22480;-85
2022/06/06 23:58:43;;;;;;;9.18;8.38;;;;;;;18.65;63.25;100365.19;3622632;76;20932;-85
